Time;durP1;ratioP1;P1;durP2;ratioP2;P2;SDS_P1;SDS_P2;PMS_P1;PMS_P2;Temp;Humidity;BMP_temperature;BMP_pressure;BME280_temperature;BME280_humidity;BME280_pressure;Samples;Min_cycle;Max_cycle;Signal;HPM_P1;HPM_P2
2022/09/27 00:02:04;;;;;;;0.22;0.10;;;21.20;72.60;;;;;;5144403;27;45311;-73
2022/09/27 00:04:31;;;;;;;0.20;0.20;;;21.20;72.70;;;;;;5146883;27;45328;-74
2022/09/27 00:06:58;;;;;;;0.50;0.30;;;21.20;72.60;;;;;;5147041;27;45442;-72
2022/09/27 00:09:26;;;;;;;1.23;0.22;;;21.20;72.70;;;;;;5144002;27;46791;-73
2022/09/27 00:11:52;;;;;;;0.63;0.28;;;21.20;72.60;;;;;;5139868;27;45323;-73
2022/09/27 00:14:20;;;;;;;0.47;0.30;;;21.20;72.70;;;;;;5135740;27;45344;-73
2022/09/27 00:16:47;;;;;;;0.60;0.25;;;21.20;72.60;;;;;;5126757;27;45561;-73
2022/09/27 00:19:17;;;;;;;1.75;0.10;;;21.20;72.60;;;;;;5134815;27;47226;-73
2022/09/27 00:21:45;;;;;;;0.13;0.13;;;21.20;72.50;;;;;;5139243;27;45348;-73
2022/09/27 00:24:13;;;;;;;1.00;0.28;;;21.20;72.60;;;;;;5146102;27;45398;-73
2022/09/27 00:26:40;;;;;;;0.63;0.20;;;21.20;72.50;;;;;;5140568;27;45396;-72
2022/09/27 00:29:07;;;;;;;0.47;0.20;;;21.20;72.50;;;;;;5147155;27;47437;-72
2022/09/27 00:31:34;;;;;;;0.30;0.20;;;21.20;72.60;;;;;;5140533;27;45352;-73
2022/09/27 00:34:03;;;;;;;0.30;0.17;;;21.20;72.50;;;;;;5134076;27;45315;-73
2022/09/27 00:36:33;;;;;;;1.05;0.40;;;21.20;72.50;;;;;;5140511;27;45467;-72
2022/09/27 00:39:01;;;;;;;0.63;0.22;;;21.20;72.70;;;;;;5137254;27;48346;-73
2022/09/27 00:41:29;;;;;;;0.60;0.30;;;21.20;72.40;;;;;;5127930;27;45991;-72
2022/09/27 00:43:59;;;;;;;0.93;0.38;;;21.20;72.50;;;;;;5133678;27;45499;-73
2022/09/27 00:46:30;;;;;;;0.32;0.10;;;21.20;72.40;;;;;;5145189;27;45339;-72
2022/09/27 00:49:05;;;;;;;2.78;0.30;;;21.20;72.50;;;;;;5139445;27;46624;-73
2022/09/27 00:51:37;;;;;;;0.68;0.30;;;21.20;72.20;;;;;;5137949;27;45360;-73
2022/09/27 00:54:05;;;;;;;0.88;0.30;;;21.20;72.20;;;;;;5131948;27;45255;-73
2022/09/27 00:56:33;;;;;;;0.47;0.17;;;21.20;72.40;;;;;;5145054;27;45465;-73
2022/09/27 00:59:03;;;;;;;0.25;0.13;;;21.20;72.30;;;;;;5146302;27;48231;-73
2022/09/27 01:01:30;;;;;;;0.73;0.20;;;21.20;72.20;;;;;;5137925;27;45324;-72
2022/09/27 01:04:03;;;;;;;0.10;0.10;;;21.20;72.40;;;;;;5139141;27;45398;-73
2022/09/27 01:06:32;;;;;;;0.20;0.10;;;21.20;72.30;;;;;;5135825;27;45442;-73
2022/09/27 01:08:59;;;;;;;1.95;0.20;;;21.20;72.30;;;;;;5141805;27;46428;-73
2022/09/27 01:11:37;;;;;;;2.28;0.30;;;21.20;72.40;;;;;;5142741;27;45482;-72
2022/09/27 01:14:23;;;;;;;0.35;0.28;;;21.20;72.30;;;;;;5142633;27;45402;-72
2022/09/27 01:17:01;;;;;;;0.65;0.20;;;21.20;72.20;;;;;;5138730;27;45377;-73
2022/09/27 01:19:57;;;;;;;0.50;0.30;;;21.20;72.10;;;;;;5136229;27;48233;-72
2022/09/27 01:22:30;;;;;;;0.70;0.30;;;21.20;72.20;;;;;;5137009;27;45923;-73
2022/09/27 01:25:09;;;;;;;0.50;0.10;;;21.20;72.20;;;;;;5141675;27;45320;-72
2022/09/27 01:28:14;;;;;;;0.10;0.10;;;21.20;72.10;;;;;;5138816;27;45306;-73
2022/09/27 01:30:48;;;;;;;1.48;0.10;;;21.20;71.90;;;;;;5135194;27;45410;-73
2022/09/27 01:33:29;;;;;;;0.13;0.10;;;21.10;71.90;;;;;;5126105;27;45375;-73
2022/09/27 01:36:14;;;;;;;0.47;0.22;;;21.10;71.90;;;;;;5135466;27;45357;-73
2022/09/27 01:38:47;;;;;;;0.20;0.20;;;21.10;72.00;;;;;;5125674;27;45439;-73
2022/09/27 01:41:26;;;;;;;0.85;0.40;;;21.10;71.90;;;;;;5136201;27;45369;-72
2022/09/27 01:43:59;;;;;;;0.70;0.10;;;21.10;71.90;;;;;;5140089;27;45379;-72
2022/09/27 01:46:33;;;;;;;0.22;0.20;;;21.10;71.90;;;;;;5132215;27;45431;-73
2022/09/27 01:49:04;;;;;;;0.43;0.20;;;21.10;71.90;;;;;;5144917;27;45398;-73
2022/09/27 01:51:35;;;;;;;0.20;0.20;;;21.10;71.90;;;;;;5128597;27;48057;-72
2022/09/27 01:54:07;;;;;;;0.40;0.20;;;21.20;73.00;;;;;;5130496;27;45387;-73
2022/09/27 01:56:38;;;;;;;0.52;0.20;;;21.20;71.90;;;;;;5134378;27;45353;-74
2022/09/27 01:59:10;;;;;;;1.30;0.50;;;21.10;71.80;;;;;;5132077;27;45496;-72
2022/09/27 02:01:40;;;;;;;0.30;0.20;;;21.20;71.90;;;;;;5139055;27;47729;-73
2022/09/27 02:04:10;;;;;;;1.20;0.30;;;21.10;71.70;;;;;;5131727;27;45417;-73
2022/09/27 02:06:41;;;;;;;1.65;0.32;;;21.10;71.80;;;;;;5145034;27;45326;-73
2022/09/27 02:09:12;;;;;;;0.65;0.20;;;21.10;71.80;;;;;;5141801;27;45362;-73
2022/09/27 02:11:42;;;;;;;0.20;0.20;;;21.10;71.80;;;;;;5136486;27;45400;-72
2022/09/27 02:14:15;;;;;;;0.60;0.20;;;21.10;71.70;;;;;;5135497;27;45371;-72
2022/09/27 02:16:50;;;;;;;0.40;0.10;;;21.10;71.70;;;;;;5138292;27;45487;-72
2022/09/27 02:19:27;;;;;;;0.40;0.20;;;21.10;71.60;;;;;;5139881;27;45374;-73
2022/09/27 02:22:04;;;;;;;0.10;0.10;;;21.10;71.60;;;;;;5144738;27;47402;-73
2022/09/27 02:24:40;;;;;;;0.70;0.20;;;21.10;71.60;;;;;;5142413;27;45453;-73
2022/09/27 02:27:12;;;;;;;2.17;0.30;;;21.10;71.60;;;;;;5145196;27;45254;-72
2022/09/27 02:29:45;;;;;;;0.32;0.20;;;21.10;71.70;;;;;;5139986;27;45412;-72
2022/09/27 02:32:16;;;;;;;0.95;0.30;;;21.10;71.60;;;;;;5142991;27;46390;-73
2022/09/27 02:34:44;;;;;;;1.02;0.28;;;21.10;71.70;;;;;;5128930;27;45362;-72
2022/09/27 02:37:11;;;;;;;0.35;0.20;;;21.10;71.70;;;;;;5141664;27;45358;-73
2022/09/27 02:39:38;;;;;;;0.52;0.20;;;21.10;71.60;;;;;;5142369;27;45502;-73
2022/09/27 02:42:06;;;;;;;1.33;0.22;;;21.10;71.60;;;;;;5142777;27;46656;-73
2022/09/27 02:44:33;;;;;;;0.47;0.22;;;21.10;71.70;;;;;;5146501;27;45929;-72
2022/09/27 02:47:28;;;;;;;1.20;0.32;;;21.10;71.60;;;;;;5134302;27;45360;-73
2022/09/27 02:50:08;;;;;;;0.15;0.10;;;21.10;71.50;;;;;;5135385;27;45528;-73
2022/09/27 02:52:43;;;;;;;0.45;0.10;;;21.10;71.50;;;;;;5136932;27;47522;-73
2022/09/27 02:55:18;;;;;;;1.45;0.20;;;21.10;71.50;;;;;;5140634;27;45350;-72
2022/09/27 02:57:58;;;;;;;0.55;0.20;;;21.10;71.50;;;;;;5140430;27;45518;-73
2022/09/27 03:00:31;;;;;;;0.10;0.10;;;21.10;71.50;;;;;;5142068;27;45650;-72
2022/09/27 03:03:05;;;;;;;0.30;0.30;;;21.10;71.40;;;;;;5143378;27;46685;-72
2022/09/27 03:05:35;;;;;;;0.30;0.10;;;21.10;71.50;;;;;;5137936;27;45285;-73
2022/09/27 03:08:03;;;;;;;0.98;0.30;;;21.10;71.40;;;;;;5147770;27;45340;-73
2022/09/27 03:10:30;;;;;;;0.22;0.20;;;21.10;71.30;;;;;;5147754;27;45404;-72
2022/09/27 03:12:58;;;;;;;0.10;0.10;;;21.10;71.20;;;;;;5147599;27;48218;-73
2022/09/27 03:15:25;;;;;;;0.10;0.10;;;21.10;71.20;;;;;;5137539;27;45482;-72
2022/09/27 03:17:52;;;;;;;2.80;0.20;;;21.10;71.00;;;;;;5137823;27;45445;-74
2022/09/27 03:20:20;;;;;;;0.20;0.20;;;21.10;70.90;;;;;;5147067;27;45393;-73
2022/09/27 03:22:47;;;;;;;0.52;0.20;;;21.10;70.80;;;;;;5133722;27;45303;-73
2022/09/27 03:25:14;;;;;;;0.77;0.20;;;21.10;70.80;;;;;;5142963;27;45349;-73
2022/09/27 03:27:40;;;;;;;0.20;0.20;;;21.10;70.80;;;;;;5140781;27;45457;-73
2022/09/27 03:30:08;;;;;;;0.25;0.20;;;21.10;70.80;;;;;;5131037;27;45572;-73
2022/09/27 03:32:35;;;;;;;0.00;0.00;;;21.10;70.70;;;;;;5148071;27;46254;-72
2022/09/27 03:35:02;;;;;;;0.85;0.17;;;21.00;70.60;;;;;;5137914;27;45378;-73
2022/09/27 03:37:30;;;;;;;0.45;0.10;;;21.00;70.50;;;;;;5147168;27;45456;-73
2022/09/27 03:39:57;;;;;;;0.38;0.10;;;21.10;70.70;;;;;;5142878;27;45478;-72
2022/09/27 03:42:23;;;;;;;0.15;0.10;;;21.00;70.70;;;;;;5147588;27;46511;-73
2022/09/27 03:44:51;;;;;;;0.08;0.00;;;21.10;70.80;;;;;;5145439;27;45370;-72
2022/09/27 03:47:18;;;;;;;0.43;0.10;;;21.00;70.60;;;;;;5147882;27;45477;-73
2022/09/27 03:49:45;;;;;;;0.10;0.10;;;21.10;70.70;;;;;;5146730;27;45370;-73
2022/09/27 03:52:12;;;;;;;0.55;0.22;;;21.10;71.70;;;;;;5132872;27;46397;-72
2022/09/27 03:54:41;;;;;;;0.10;0.10;;;21.00;70.60;;;;;;5142799;27;45341;-73
2022/09/27 03:57:08;;;;;;;1.15;0.32;;;21.00;70.60;;;;;;5133507;27;45363;-72
2022/09/27 03:59:35;;;;;;;0.40;0.15;;;21.00;70.60;;;;;;5142943;27;45726;-72
2022/09/27 04:02:02;;;;;;;0.30;0.10;;;21.00;70.40;;;;;;5137097;27;47152;-72
2022/09/27 04:04:29;;;;;;;0.20;0.10;;;21.00;70.40;;;;;;5134160;27;45454;-72
2022/09/27 04:06:55;;;;;;;0.20;0.10;;;21.10;70.50;;;;;;5143447;27;45390;-73
2022/09/27 04:09:22;;;;;;;0.10;0.10;;;21.00;70.30;;;;;;5146956;27;45330;-72
2022/09/27 04:11:50;;;;;;;0.60;0.28;;;21.00;70.10;;;;;;5145018;27;46605;-73
2022/09/27 04:14:17;;;;;;;0.70;0.10;;;21.00;70.20;;;;;;5131528;27;45509;-73
2022/09/27 04:16:44;;;;;;;0.10;0.08;;;21.00;70.30;;;;;;5138885;27;45388;-72
2022/09/27 04:19:11;;;;;;;0.10;0.10;;;21.00;70.10;;;;;;5143166;27;45439;-72
2022/09/27 04:21:38;;;;;;;0.20;0.20;;;21.00;70.10;;;;;;5137670;27;45542;-73
2022/09/27 04:24:05;;;;;;;0.35;0.05;;;21.00;70.10;;;;;;5145147;27;45322;-73
2022/09/27 04:26:32;;;;;;;0.35;0.00;;;21.00;70.10;;;;;;5146107;27;45482;-72
2022/09/27 04:29:01;;;;;;;1.27;0.20;;;21.00;70.10;;;;;;5138510;27;45484;-73
2022/09/27 04:31:28;;;;;;;0.43;0.00;;;21.00;70.00;;;;;;5137118;27;48407;-73
2022/09/27 04:33:55;;;;;;;0.32;0.10;;;21.00;69.90;;;;;;5143745;27;45271;-73
2022/09/27 04:36:27;;;;;;;0.20;0.10;;;21.00;69.90;;;;;;5135056;27;45418;-73
2022/09/27 04:38:55;;;;;;;1.75;0.20;;;21.00;70.00;;;;;;5146704;27;45470;-72
2022/09/27 04:41:23;;;;;;;0.20;0.10;;;21.00;69.90;;;;;;5133325;27;45259;-74
2022/09/27 04:43:50;;;;;;;0.10;0.10;;;21.00;69.90;;;;;;5139500;27;45351;-73
2022/09/27 04:46:20;;;;;;;0.00;0.00;;;21.00;69.90;;;;;;5138566;27;45476;-73
2022/09/27 04:48:48;;;;;;;0.30;0.10;;;21.00;70.00;;;;;;5139931;27;45257;-72
2022/09/27 04:51:16;;;;;;;0.10;0.10;;;21.00;70.10;;;;;;5138692;27;46075;-73
2022/09/27 04:53:43;;;;;;;0.32;0.10;;;21.00;69.90;;;;;;5139859;27;45629;-72
2022/09/27 04:56:10;;;;;;;0.10;0.10;;;21.10;70.00;;;;;;5143613;27;45301;-74
2022/09/27 04:58:37;;;;;;;0.00;0.00;;;21.00;70.00;;;;;;5130062;27;45626;-73
2022/09/27 05:01:04;;;;;;;0.20;0.05;;;21.00;70.00;;;;;;5144959;27;47625;-73
2022/09/27 05:03:32;;;;;;;0.10;0.10;;;21.00;70.10;;;;;;5136744;27;45306;-73
2022/09/27 05:05:59;;;;;;;0.30;0.10;;;21.00;70.10;;;;;;5141935;27;45401;-73
2022/09/27 05:08:27;;;;;;;0.75;0.20;;;21.00;70.00;;;;;;5144866;27;45535;-72
2022/09/27 05:10:54;;;;;;;0.43;0.10;;;21.00;69.80;;;;;;5144375;27;47573;-73
2022/09/27 05:13:22;;;;;;;0.22;0.10;;;21.00;69.90;;;;;;5142575;27;45585;-72
2022/09/27 05:15:49;;;;;;;0.20;0.10;;;21.00;69.80;;;;;;5143092;27;45309;-73
2022/09/27 05:18:16;;;;;;;0.28;0.10;;;21.00;69.70;;;;;;5137003;27;45340;-73
2022/09/27 05:20:46;;;;;;;0.77;0.15;;;21.00;69.70;;;;;;5136122;27;47957;-73
2022/09/27 05:23:14;;;;;;;0.10;0.00;;;21.00;69.60;;;;;;5133295;27;45468;-73
2022/09/27 05:25:41;;;;;;;0.10;0.10;;;21.00;69.60;;;;;;5145124;27;45385;-73
2022/09/27 05:28:08;;;;;;;0.85;0.20;;;21.00;69.50;;;;;;5140995;27;45628;-73
2022/09/27 05:30:35;;;;;;;0.32;0.10;;;21.00;69.60;;;;;;5144941;27;46809;-72
2022/09/27 05:33:02;;;;;;;0.10;0.10;;;21.00;69.40;;;;;;5144864;27;45201;-73
2022/09/27 05:35:28;;;;;;;0.28;0.05;;;21.00;69.20;;;;;;5137547;27;45429;-72
2022/09/27 05:37:59;;;;;;;1.20;0.13;;;21.00;69.40;;;;;;5141197;27;45754;-74
2022/09/27 05:40:28;;;;;;;0.38;0.10;;;21.00;68.20;;;;;;5144097;27;47331;-73
2022/09/27 05:42:55;;;;;;;0.75;0.13;;;21.00;67.30;;;;;;5142226;27;45992;-72
2022/09/27 05:45:23;;;;;;;0.20;0.10;;;21.00;66.80;;;;;;5145044;27;45443;-72
2022/09/27 05:47:55;;;;;;;0.20;0.13;;;21.00;68.70;;;;;;5135989;27;45453;-72
2022/09/27 05:50:22;;;;;;;0.95;0.38;;;21.00;68.70;;;;;;5134522;27;46575;-72
2022/09/27 05:52:49;;;;;;;0.13;0.00;;;20.90;68.70;;;;;;5142530;27;45301;-72
2022/09/27 05:55:17;;;;;;;0.63;0.15;;;21.00;68.60;;;;;;5134873;27;45427;-72
2022/09/27 05:57:54;;;;;;;0.50;0.20;;;21.00;68.70;;;;;;5134212;27;45695;-71
2022/09/27 06:00:22;;;;;;;0.47;0.20;;;21.00;68.60;;;;;;5134621;27;47298;-72
2022/09/27 06:02:53;;;;;;;0.10;0.03;;;21.00;68.70;;;;;;5134557;27;45920;-72
2022/09/27 06:05:20;;;;;;;0.95;0.28;;;21.00;68.80;;;;;;5144103;27;45449;-73
2022/09/27 06:07:48;;;;;;;0.45;0.10;;;21.00;68.70;;;;;;5139769;27;45353;-72
2022/09/27 06:10:16;;;;;;;0.30;0.15;;;21.00;69.00;;;;;;5137410;27;45482;-72
2022/09/27 06:12:43;;;;;;;0.22;0.10;;;21.00;69.00;;;;;;5134156;27;45289;-72
2022/09/27 06:15:11;;;;;;;0.15;0.10;;;21.00;69.10;;;;;;5140768;27;45273;-73
2022/09/27 06:17:38;;;;;;;0.95;0.10;;;21.00;69.10;;;;;;5144406;27;45745;-72
2022/09/27 06:20:06;;;;;;;0.70;0.20;;;21.00;69.30;;;;;;5144938;27;45451;-72
2022/09/27 06:22:33;;;;;;;0.55;0.15;;;21.00;69.20;;;;;;5139956;27;45224;-72
2022/09/27 06:24:59;;;;;;;19.35;1.23;;;21.00;69.30;;;;;;5132510;27;45376;-72
2022/09/27 06:27:28;;;;;;;7.60;0.90;;;21.00;69.40;;;;;;5136506;27;45305;-71
2022/09/27 06:29:55;;;;;;;3.05;0.40;;;21.00;69.20;;;;;;5140247;27;45583;-72
2022/09/27 06:32:22;;;;;;;1.40;0.30;;;21.00;70.10;;;;;;5134613;27;45487;-71
2022/09/27 06:34:48;;;;;;;1.30;0.30;;;21.10;70.10;;;;;;5135857;27;45454;-72
2022/09/27 06:37:15;;;;;;;1.25;0.25;;;21.10;70.20;;;;;;5142540;27;45437;-71
2022/09/27 06:39:42;;;;;;;0.67;0.30;;;21.10;70.10;;;;;;5126133;27;45418;-72
2022/09/27 06:42:09;;;;;;;0.88;0.25;;;21.10;70.10;;;;;;5138990;27;45426;-71
2022/09/27 06:44:38;;;;;;;0.60;0.20;;;21.10;70.00;;;;;;5139599;27;45535;-72
2022/09/27 06:47:04;;;;;;;1.75;0.30;;;21.10;69.80;;;;;;5140033;27;45426;-72
2022/09/27 06:49:32;;;;;;;1.40;0.40;;;21.10;69.60;;;;;;5139824;27;47553;-72
2022/09/27 06:51:58;;;;;;;0.50;0.20;;;21.10;69.60;;;;;;5138587;27;45499;-72
2022/09/27 06:54:25;;;;;;;1.67;0.22;;;21.10;69.30;;;;;;5133164;27;45531;-72
2022/09/27 06:56:52;;;;;;;0.95;0.20;;;21.10;69.20;;;;;;5135957;27;45350;-71
2022/09/27 07:02:04;;;;;;;0.25;0.20;;;21.10;68.90;;;;;;5141693;27;45425;-71
2022/09/27 07:04:32;;;;;;;0.38;0.20;;;21.10;68.80;;;;;;5137283;27;45396;-72
2022/09/27 07:06:59;;;;;;;0.22;0.10;;;21.10;68.90;;;;;;5129247;27;45512;-72
2022/09/27 07:09:26;;;;;;;0.95;0.15;;;21.20;68.90;;;;;;5133548;27;47522;-73
2022/09/27 07:11:53;;;;;;;0.10;0.05;;;21.10;68.80;;;;;;5144395;27;45483;-70
2022/09/27 07:14:20;;;;;;;8.93;1.20;;;21.10;68.70;;;;;;5137386;27;45368;-73
2022/09/27 07:16:47;;;;;;;5.40;0.90;;;21.10;68.90;;;;;;5132090;27;45608;-72
2022/09/27 07:19:17;;;;;;;4.97;0.65;;;21.10;68.90;;;;;;5129670;27;46978;-72
2022/09/27 07:21:44;;;;;;;5.22;0.30;;;21.10;68.70;;;;;;5137187;27;45430;-72
2022/09/27 07:24:10;;;;;;;4.53;0.50;;;21.20;68.80;;;;;;5138620;27;45286;-72
2022/09/27 07:26:37;;;;;;;0.52;0.28;;;21.10;68.80;;;;;;5132510;27;45537;-73
2022/09/27 07:29:04;;;;;;;1.10;0.25;;;21.20;68.80;;;;;;5133974;27;47104;-72
2022/09/27 07:31:31;;;;;;;1.60;0.40;;;21.20;68.80;;;;;;5139005;27;45445;-73
2022/09/27 07:33:57;;;;;;;0.45;0.25;;;21.20;68.80;;;;;;5142086;27;45363;-73
2022/09/27 07:36:26;;;;;;;1.30;0.25;;;21.20;68.40;;;;;;5144385;27;45217;-72
2022/09/27 07:38:52;;;;;;;0.40;0.10;;;21.20;68.50;;;;;;5140044;27;47890;-73
2022/09/27 07:41:19;;;;;;;0.38;0.20;;;21.20;68.40;;;;;;5133526;27;45471;-72
2022/09/27 07:43:46;;;;;;;3.47;0.63;;;21.20;68.40;;;;;;5143489;27;45318;-72
2022/09/27 07:46:13;;;;;;;0.40;0.15;;;21.20;68.40;;;;;;5142245;27;45493;-72
2022/09/27 07:48:40;;;;;;;0.40;0.20;;;21.20;68.20;;;;;;5144588;27;48082;-72
2022/09/27 07:51:09;;;;;;;0.10;0.10;;;21.20;68.40;;;;;;5145286;27;45412;-73
2022/09/27 07:53:38;;;;;;;0.45;0.20;;;21.20;68.40;;;;;;5139657;27;45381;-72
2022/09/27 07:56:05;;;;;;;0.85;0.28;;;21.20;68.30;;;;;;5142685;27;45410;-72
2022/09/27 07:58:32;;;;;;;0.43;0.17;;;21.20;68.30;;;;;;5138709;27;48083;-72
2022/09/27 08:01:00;;;;;;;0.28;0.20;;;21.20;69.30;;;;;;5143961;27;45398;-73
2022/09/27 08:03:27;;;;;;;0.90;0.28;;;21.20;68.40;;;;;;5142048;27;45298;-72
2022/09/27 08:05:54;;;;;;;0.95;0.30;;;21.30;68.60;;;;;;5144428;27;45441;-72
2022/09/27 08:08:20;;;;;;;1.02;0.20;;;21.20;68.50;;;;;;5144833;27;46424;-72
2022/09/27 08:10:48;;;;;;;1.63;0.30;;;21.20;68.80;;;;;;5140061;27;45429;-72
2022/09/27 08:13:18;;;;;;;0.30;0.20;;;21.20;68.70;;;;;;5145707;27;45384;-73
2022/09/27 08:15:47;;;;;;;3.92;0.20;;;21.30;68.90;;;;;;5136901;27;45451;-73
2022/09/27 08:18:14;;;;;;;0.85;0.20;;;21.20;68.70;;;;;;5145932;27;46513;-73
2022/09/27 08:20:41;;;;;;;1.00;0.40;;;21.20;68.70;;;;;;5139320;27;45334;-73
2022/09/27 08:23:08;;;;;;;0.57;0.22;;;21.20;68.50;;;;;;5144007;27;45460;-72
2022/09/27 08:25:35;;;;;;;0.65;0.10;;;21.20;68.50;;;;;;5141301;27;45497;-72
2022/09/27 08:28:04;;;;;;;1.55;0.50;;;21.20;68.60;;;;;;5127008;27;46622;-72
2022/09/27 08:30:31;;;;;;;0.20;0.20;;;21.30;68.60;;;;;;5141098;27;45524;-73
2022/09/27 08:33:01;;;;;;;0.45;0.10;;;21.20;68.60;;;;;;5135436;27;45487;-72
2022/09/27 08:35:28;;;;;;;0.88;0.38;;;21.20;68.40;;;;;;5126422;27;45584;-72
2022/09/27 08:37:58;;;;;;;0.35;0.20;;;21.20;68.40;;;;;;5129139;27;46125;-73
2022/09/27 08:40:31;;;;;;;0.30;0.10;;;21.30;68.00;;;;;;5146736;27;45357;-72
2022/09/27 08:43:10;;;;;;;0.75;0.47;;;21.30;68.40;;;;;;5138936;27;45291;-72
2022/09/27 08:45:49;;;;;;;1.23;0.40;;;21.30;68.40;;;;;;5145373;27;45284;-73
2022/09/27 08:48:16;;;;;;;1.27;0.25;;;21.30;68.50;;;;;;5137002;27;47961;-73
2022/09/27 08:50:45;;;;;;;0.63;0.20;;;21.30;69.60;;;;;;5140362;27;45365;-72
2022/09/27 08:53:20;;;;;;;2.00;0.50;;;21.30;68.50;;;;;;5142676;27;45339;-73
2022/09/27 08:55:49;;;;;;;0.55;0.38;;;21.20;68.30;;;;;;5137967;27;45636;-72
2022/09/27 08:58:25;;;;;;;0.35;0.17;;;21.20;68.70;;;;;;5140912;27;45486;-73
2022/09/27 09:00:55;;;;;;;0.52;0.20;;;21.20;68.50;;;;;;5135422;27;45457;-73
2022/09/27 09:03:27;;;;;;;0.85;0.50;;;21.20;68.50;;;;;;5137609;27;45516;-72
2022/09/27 09:06:10;;;;;;;1.15;0.10;;;21.20;68.40;;;;;;5140639;27;45499;-72
2022/09/27 09:08:45;;;;;;;1.00;0.30;;;21.20;68.40;;;;;;5138180;27;46278;-73
2022/09/27 09:18:20;;;;;;;1.42;0.40;;;21.20;68.40;;;;;;5143916;27;45562;-73
2022/09/27 09:20:58;;;;;;;1.95;0.17;;;21.20;68.50;;;;;;5142285;27;48073;-73
2022/09/27 09:23:46;;;;;;;3.30;0.20;;;21.20;68.60;;;;;;5144480;27;45462;-73
2022/09/27 09:26:22;;;;;;;0.22;0.20;;;21.20;68.60;;;;;;5133003;27;45367;-72
2022/09/27 09:29:05;;;;;;;0.68;0.10;;;21.10;68.40;;;;;;5141568;27;45284;-73
2022/09/27 09:31:41;;;;;;;0.30;0.10;;;21.20;68.50;;;;;;5144435;27;47163;-72
2022/09/27 09:34:15;;;;;;;0.52;0.20;;;21.20;68.30;;;;;;5141322;27;45431;-73
2022/09/27 09:36:45;;;;;;;0.30;0.08;;;21.20;68.20;;;;;;5139029;27;45369;-72
2022/09/27 09:39:16;;;;;;;0.65;0.30;;;21.20;68.30;;;;;;5136479;27;45589;-72
2022/09/27 09:41:54;;;;;;;1.00;0.20;;;21.20;68.20;;;;;;5138061;27;46401;-72
2022/09/27 09:44:24;;;;;;;0.20;0.20;;;21.20;68.10;;;;;;5142126;27;45388;-72
2022/09/27 09:46:55;;;;;;;0.22;0.08;;;21.20;68.20;;;;;;5141098;27;45295;-73
2022/09/27 09:49:28;;;;;;;0.05;0.05;;;21.20;68.10;;;;;;5144174;27;45426;-72
2022/09/27 09:52:03;;;;;;;0.10;0.10;;;21.20;68.20;;;;;;5140346;27;47045;-72
2022/09/27 09:54:35;;;;;;;0.10;0.05;;;21.20;68.10;;;;;;5136831;27;45816;-72
2022/09/27 09:57:06;;;;;;;2.40;0.10;;;21.20;68.20;;;;;;5137124;27;45371;-74
2022/09/27 09:59:40;;;;;;;0.82;0.20;;;21.20;68.10;;;;;;5144524;27;45500;-72
2022/09/27 10:02:29;;;;;;;0.20;0.20;;;21.20;68.10;;;;;;5145074;27;48097;-72
2022/09/27 10:04:58;;;;;;;0.30;0.20;;;21.20;68.10;;;;;;5131392;27;45254;-73
2022/09/27 10:07:26;;;;;;;0.20;0.20;;;21.20;68.20;;;;;;5144510;27;45410;-73
2022/09/27 10:09:55;;;;;;;0.55;0.10;;;21.20;68.20;;;;;;5138494;27;45522;-72
2022/09/27 10:12:22;;;;;;;0.45;0.10;;;21.20;68.40;;;;;;5142679;27;45502;-73
2022/09/27 10:14:50;;;;;;;0.25;0.10;;;21.20;68.40;;;;;;5140232;27;45305;-72
2022/09/27 10:17:21;;;;;;;0.80;0.20;;;21.20;68.40;;;;;;5143079;27;45373;-72
2022/09/27 10:19:51;;;;;;;1.05;0.20;;;21.20;68.50;;;;;;5140122;27;45267;-73
2022/09/27 10:22:31;;;;;;;0.35;0.22;;;21.20;68.60;;;;;;5140089;27;47210;-73
2022/09/27 10:25:00;;;;;;;0.75;0.25;;;21.20;68.60;;;;;;5137699;27;45308;-73
2022/09/27 10:27:28;;;;;;;0.38;0.17;;;21.20;68.60;;;;;;5134758;27;45457;-73
2022/09/27 10:29:59;;;;;;;0.20;0.10;;;21.20;68.40;;;;;;5137386;27;45378;-73
2022/09/27 10:32:31;;;;;;;1.25;0.40;;;21.20;68.50;;;;;;5134852;27;47939;-72
2022/09/27 10:35:19;;;;;;;0.10;0.10;;;21.20;68.50;;;;;;5143510;27;46281;-72
2022/09/27 10:37:47;;;;;;;0.43;0.10;;;21.20;68.40;;;;;;5144196;27;45255;-74
2022/09/27 10:40:27;;;;;;;0.05;0.05;;;21.20;68.60;;;;;;5145048;27;45307;-73
2022/09/27 10:42:54;;;;;;;1.17;0.15;;;21.20;68.50;;;;;;5141129;27;47092;-72
2022/09/27 10:45:29;;;;;;;0.10;0.10;;;21.20;68.50;;;;;;5135088;27;45304;-72
2022/09/27 10:47:57;;;;;;;0.40;0.10;;;21.20;68.60;;;;;;5143566;27;45422;-73
2022/09/27 10:50:25;;;;;;;0.10;0.10;;;21.20;68.70;;;;;;5138137;27;45369;-72
2022/09/27 10:53:06;;;;;;;0.90;0.20;;;21.20;68.70;;;;;;5134966;27;48270;-73
2022/09/27 10:55:35;;;;;;;0.10;0.10;;;21.10;68.70;;;;;;5136616;27;45955;-73
2022/09/27 10:58:03;;;;;;;0.75;0.20;;;21.20;68.90;;;;;;5140704;27;45485;-73
2022/09/27 11:00:32;;;;;;;0.60;0.22;;;21.10;68.70;;;;;;5142594;27;45396;-72
2022/09/27 11:03:02;;;;;;;2.03;0.30;;;21.10;68.60;;;;;;5132537;27;47393;-73
2022/09/27 11:05:34;;;;;;;1.20;0.28;;;21.10;68.60;;;;;;5137345;27;45350;-72
2022/09/27 11:08:22;;;;;;;0.20;0.10;;;21.10;68.50;;;;;;5144455;27;45405;-73
2022/09/27 11:11:07;;;;;;;1.23;0.20;;;21.10;68.60;;;;;;5142638;27;45356;-73
2022/09/27 11:13:35;;;;;;;0.17;0.15;;;21.10;68.50;;;;;;5142161;27;46630;-72
2022/09/27 11:16:37;;;;;;;1.42;0.35;;;21.10;68.50;;;;;;5143009;27;45439;-72
2022/09/27 11:19:19;;;;;;;3.40;0.60;;;21.10;68.50;;;;;;5117613;27;45441;-72
2022/09/27 11:21:54;;;;;;;4.07;0.45;;;21.10;71.90;;;;;;5140440;27;45518;-72
2022/09/27 11:24:33;;;;;;;1.13;0.73;;;21.20;71.70;;;;;;5135467;27;48242;-73
2022/09/27 11:27:12;;;;;;;4.03;0.47;;;21.30;71.70;;;;;;5141404;27;45292;-70
2022/09/27 11:29:59;;;;;;;5.63;0.95;;;21.40;72.00;;;;;;5138674;27;45379;-72
2022/09/27 11:32:37;;;;;;;3.78;0.50;;;21.50;71.20;;;;;;5143693;27;45404;-71
2022/09/27 11:35:18;;;;;;;3.08;0.50;;;21.70;71.20;;;;;;5129885;27;45496;-72
2022/09/27 11:37:55;;;;;;;0.75;0.30;;;21.80;70.90;;;;;;5137587;27;45423;-71
2022/09/27 11:40:31;;;;;;;2.38;0.60;;;22.00;71.00;;;;;;5146121;27;45245;-72
2022/09/27 11:43:25;;;;;;;2.47;0.47;;;22.10;71.00;;;;;;5130383;27;45564;-73
2022/09/27 11:46:00;;;;;;;0.98;0.30;;;22.20;71.10;;;;;;5136702;27;47361;-72
2022/09/27 11:48:50;;;;;;;1.13;0.35;;;22.30;71.20;;;;;;5134634;27;45482;-72
2022/09/27 11:51:32;;;;;;;2.47;0.25;;;22.40;71.30;;;;;;5141443;27;45431;-72
2022/09/27 11:54:23;;;;;;;2.70;0.32;;;22.50;71.30;;;;;;5136118;27;45343;-72
2022/09/27 11:56:59;;;;;;;0.80;0.35;;;22.60;71.40;;;;;;5134292;27;48240;-72
2022/09/27 11:59:54;;;;;;;0.68;0.40;;;22.70;70.90;;;;;;5138712;27;45217;-72
2022/09/27 12:02:38;;;;;;;2.30;0.43;;;22.70;70.80;;;;;;5142966;27;45460;-72
2022/09/27 12:05:18;;;;;;;1.42;0.80;;;22.80;70.90;;;;;;5143648;27;45348;-71
2022/09/27 12:08:05;;;;;;;1.40;0.50;;;22.80;70.50;;;;;;5135461;27;45679;-71
2022/09/27 12:10:32;;;;;;;8.90;0.75;;;22.90;70.50;;;;;;5131011;27;45462;-72
2022/09/27 12:13:01;;;;;;;1.77;0.40;;;22.90;70.50;;;;;;5143856;27;45468;-72
2022/09/27 12:15:32;;;;;;;2.42;0.40;;;23.00;70.30;;;;;;5135874;27;45537;-71
2022/09/27 12:18:07;;;;;;;2.75;0.50;;;23.10;70.30;;;;;;5140002;27;47357;-72
2022/09/27 12:20:36;;;;;;;1.67;0.30;;;23.10;69.60;;;;;;5134983;27;46222;-71
2022/09/27 12:23:07;;;;;;;1.13;0.40;;;23.10;69.00;;;;;;5142275;27;45236;-72
2022/09/27 12:25:40;;;;;;;0.77;0.40;;;23.10;69.20;;;;;;5142172;27;45294;-71
2022/09/27 12:28:14;;;;;;;2.22;0.57;;;23.10;68.70;;;;;;5136911;27;46575;-72
2022/09/27 12:30:48;;;;;;;2.63;0.57;;;23.00;68.70;;;;;;5138433;27;45362;-71
2022/09/27 12:33:23;;;;;;;1.27;0.45;;;23.00;68.70;;;;;;5144659;27;45391;-72
2022/09/27 12:35:52;;;;;;;2.55;0.70;;;23.00;68.70;;;;;;5133951;27;45580;-71
2022/09/27 12:38:24;;;;;;;2.13;0.98;;;22.90;68.70;;;;;;5135559;27;48261;-72
2022/09/27 12:40:54;;;;;;;3.28;0.70;;;23.00;68.80;;;;;;5140568;27;45383;-72
2022/09/27 12:43:24;;;;;;;2.08;0.60;;;22.90;68.70;;;;;;5144302;27;45389;-74
2022/09/27 12:45:59;;;;;;;5.35;0.70;;;23.00;68.70;;;;;;5145846;27;45376;-72
2022/09/27 12:48:36;;;;;;;1.92;0.60;;;23.00;68.90;;;;;;5146088;27;45238;-72
2022/09/27 12:51:08;;;;;;;3.70;0.88;;;23.00;68.70;;;;;;5143997;27;45717;-73
2022/09/27 12:53:52;;;;;;;2.28;0.70;;;23.00;69.10;;;;;;5146835;27;45368;-73
2022/09/27 12:56:29;;;;;;;2.60;0.70;;;23.00;68.90;;;;;;5132336;27;45414;-72
2022/09/27 12:59:27;;;;;;;3.30;0.75;;;23.00;68.80;;;;;;5146239;27;46487;-72
2022/09/27 13:02:21;;;;;;;2.35;0.65;;;23.00;68.50;;;;;;5125351;27;45406;-72
2022/09/27 13:05:22;;;;;;;2.28;0.90;;;23.00;68.20;;;;;;5129831;27;45527;-72
2022/09/27 13:07:59;;;;;;;1.58;0.60;;;23.00;68.10;;;;;;5136527;27;45323;-72
2022/09/27 13:10:40;;;;;;;2.80;0.50;;;23.00;68.00;;;;;;5131549;27;46506;-72
2022/09/27 13:13:11;;;;;;;1.02;0.40;;;22.70;67.60;;;;;;5143729;27;45483;-72
2022/09/27 13:15:43;;;;;;;2.00;0.70;;;22.40;68.00;;;;;;5135453;27;45472;-72
2022/09/27 13:18:31;;;;;;;0.45;0.30;;;22.30;68.50;;;;;;5138518;27;45434;-72
2022/09/27 13:20:58;;;;;;;2.65;0.43;;;22.10;68.50;;;;;;5135387;27;47307;-72